sensor_id;sensor_type;location;lat;lon;timestamp;temperature;humidity
9167;DHT22;4618;48.818;9.088;2023-12-22T00:01:24;7.00;1.00
9167;DHT22;4618;48.818;9.088;2023-12-22T00:03:49;7.00;99.90
9167;DHT22;4618;48.818;9.088;2023-12-22T00:06:15;7.00;99.90
9167;DHT22;4618;48.818;9.088;2023-12-22T00:08:41;7.00;1.00
9167;DHT22;4618;48.818;9.088;2023-12-22T00:11:07;7.20;1.00
9167;DHT22;4618;48.818;9.088;2023-12-22T00:13:33;7.30;1.00
9167;DHT22;4618;48.818;9.088;2023-12-22T00:15:59;7.50;1.00
9167;DHT22;4618;48.818;9.088;2023-12-22T00:18:26;7.50;1.00
9167;DHT22;4618;48.818;9.088;2023-12-22T00:20:51;7.50;1.00
9167;DHT22;4618;48.818;9.088;2023-12-22T00:23:17;7.60;1.00
9167;DHT22;4618;48.818;9.088;2023-12-22T00:25:42;7.50;99.90
9167;DHT22;4618;48.818;9.088;2023-12-22T00:28:08;7.40;99.90
9167;DHT22;4618;48.818;9.088;2023-12-22T00:30:34;7.40;99.90
9167;DHT22;4618;48.818;9.088;2023-12-22T00:32:59;7.40;99.90
9167;DHT22;4618;48.818;9.088;2023-12-22T00:35:25;7.40;89.30
9167;DHT22;4618;48.818;9.088;2023-12-22T00:37:50;7.40;99.90
9167;DHT22;4618;48.818;9.088;2023-12-22T00:40:16;7.20;99.90
9167;DHT22;4618;48.818;9.088;2023-12-22T00:42:41;7.00;99.90
9167;DHT22;4618;48.818;9.088;2023-12-22T00:45:07;7.00;1.00
9167;DHT22;4618;48.818;9.088;2023-12-22T00:47:33;6.90;99.90
9167;DHT22;4618;48.818;9.088;2023-12-22T00:50:01;6.90;1.00
9167;DHT22;4618;48.818;9.088;2023-12-22T00:52:27;6.90;1.00
9167;DHT22;4618;48.818;9.088;2023-12-22T00:54:53;6.90;1.00
9167;DHT22;4618;48.818;9.088;2023-12-22T00:57:18;6.90;1.00
9167;DHT22;4618;48.818;9.088;2023-12-22T00:59:44;6.90;1.00
9167;DHT22;4618;48.818;9.088;2023-12-22T01:02:16;6.90;1.00
9167;DHT22;4618;48.818;9.088;2023-12-22T01:04:42;6.90;99.90
9167;DHT22;4618;48.818;9.088;2023-12-22T01:07:08;6.90;1.00
9167;DHT22;4618;48.818;9.088;2023-12-22T01:09:34;6.90;1.00
9167;DHT22;4618;48.818;9.088;2023-12-22T01:12:00;7.00;99.90
9167;DHT22;4618;48.818;9.088;2023-12-22T01:14:28;7.10;1.00
9167;DHT22;4618;48.818;9.088;2023-12-22T01:16:54;7.10;1.00
9167;DHT22;4618;48.818;9.088;2023-12-22T01:19:19;7.20;99.90
9167;DHT22;4618;48.818;9.088;2023-12-22T01:21:45;7.20;1.00
9167;DHT22;4618;48.818;9.088;2023-12-22T01:24:11;7.30;43.70
9167;DHT22;4618;48.818;9.088;2023-12-22T01:26:36;7.20;1.00
9167;DHT22;4618;48.818;9.088;2023-12-22T01:29:02;7.30;1.00
9167;DHT22;4618;48.818;9.088;2023-12-22T01:31:28;7.40;99.90
9167;DHT22;4618;48.818;9.088;2023-12-22T01:33:54;7.30;99.90
9167;DHT22;4618;48.818;9.088;2023-12-22T01:36:19;7.40;1.00
9167;DHT22;4618;48.818;9.088;2023-12-22T01:38:45;7.50;1.00
9167;DHT22;4618;48.818;9.088;2023-12-22T01:41:10;7.40;1.00
9167;DHT22;4618;48.818;9.088;2023-12-22T01:43:36;7.40;1.00
9167;DHT22;4618;48.818;9.088;2023-12-22T01:46:02;7.50;99.90
9167;DHT22;4618;48.818;9.088;2023-12-22T01:48:28;7.50;99.90
9167;DHT22;4618;48.818;9.088;2023-12-22T01:50:55;7.50;99.90
9167;DHT22;4618;48.818;9.088;2023-12-22T01:53:21;7.50;99.90
9167;DHT22;4618;48.818;9.088;2023-12-22T01:55:50;7.50;99.90
9167;DHT22;4618;48.818;9.088;2023-12-22T01:58:16;7.50;99.90
9167;DHT22;4618;48.818;9.088;2023-12-22T02:00:42;7.40;95.00
9167;DHT22;4618;48.818;9.088;2023-12-22T02:03:09;7.40;99.90
9167;DHT22;4618;48.818;9.088;2023-12-22T02:05:34;7.40;99.90
9167;DHT22;4618;48.818;9.088;2023-12-22T02:08:00;7.40;99.90
9167;DHT22;4618;48.818;9.088;2023-12-22T02:10:26;7.30;99.90
9167;DHT22;4618;48.818;9.088;2023-12-22T02:12:52;7.30;99.90
9167;DHT22;4618;48.818;9.088;2023-12-22T02:15:17;7.40;99.90
9167;DHT22;4618;48.818;9.088;2023-12-22T02:17:54;7.40;1.00
9167;DHT22;4618;48.818;9.088;2023-12-22T02:20:21;7.40;99.90
9167;DHT22;4618;48.818;9.088;2023-12-22T02:22:54;7.40;1.00
9167;DHT22;4618;48.818;9.088;2023-12-22T02:25:19;7.40;31.10
9167;DHT22;4618;48.818;9.088;2023-12-22T02:27:48;7.30;99.90
9167;DHT22;4618;48.818;9.088;2023-12-22T02:30:30;7.30;99.90
9167;DHT22;4618;48.818;9.088;2023-12-22T02:32:59;7.30;99.90
9167;DHT22;4618;48.818;9.088;2023-12-22T02:35:28;7.30;99.90
9167;DHT22;4618;48.818;9.088;2023-12-22T02:37:56;7.30;99.90
9167;DHT22;4618;48.818;9.088;2023-12-22T02:40:24;7.40;98.80
9167;DHT22;4618;48.818;9.088;2023-12-22T02:42:52;7.40;82.70
9167;DHT22;4618;48.818;9.088;2023-12-22T02:45:19;7.40;1.00
9167;DHT22;4618;48.818;9.088;2023-12-22T02:47:45;7.50;3.80
9167;DHT22;4618;48.818;9.088;2023-12-22T02:50:12;7.40;99.90
9167;DHT22;4618;48.818;9.088;2023-12-22T02:52:38;7.50;1.00
9167;DHT22;4618;48.818;9.088;2023-12-22T02:55:04;7.50;1.00
9167;DHT22;4618;48.818;9.088;2023-12-22T02:57:30;7.50;17.80
9167;DHT22;4618;48.818;9.088;2023-12-22T02:59:56;7.50;1.00
9167;DHT22;4618;48.818;9.088;2023-12-22T03:02:22;7.60;1.00
9167;DHT22;4618;48.818;9.088;2023-12-22T03:04:48;7.50;1.00
9167;DHT22;4618;48.818;9.088;2023-12-22T03:07:14;7.60;1.00
9167;DHT22;4618;48.818;9.088;2023-12-22T03:09:40;7.60;1.00
9167;DHT22;4618;48.818;9.088;2023-12-22T03:12:07;7.60;1.00
9167;DHT22;4618;48.818;9.088;2023-12-22T03:14:33;7.70;1.00
9167;DHT22;4618;48.818;9.088;2023-12-22T03:17:02;7.70;1.00
9167;DHT22;4618;48.818;9.088;2023-12-22T03:19:29;7.80;79.80
9167;DHT22;4618;48.818;9.088;2023-12-22T03:21:54;7.80;99.90
9167;DHT22;4618;48.818;9.088;2023-12-22T03:24:20;7.80;99.90
9167;DHT22;4618;48.818;9.088;2023-12-22T03:26:48;7.90;1.00
9167;DHT22;4618;48.818;9.088;2023-12-22T03:29:14;7.90;1.00
9167;DHT22;4618;48.818;9.088;2023-12-22T03:31:39;7.90;1.00
9167;DHT22;4618;48.818;9.088;2023-12-22T03:34:05;7.90;1.00
9167;DHT22;4618;48.818;9.088;2023-12-22T03:36:31;7.90;1.00
9167;DHT22;4618;48.818;9.088;2023-12-22T03:38:57;7.90;1.00
9167;DHT22;4618;48.818;9.088;2023-12-22T03:41:22;7.80;1.00
9167;DHT22;4618;48.818;9.088;2023-12-22T03:43:48;7.80;1.00
9167;DHT22;4618;48.818;9.088;2023-12-22T03:46:13;7.80;1.00
9167;DHT22;4618;48.818;9.088;2023-12-22T03:48:39;7.80;1.00
9167;DHT22;4618;48.818;9.088;2023-12-22T03:51:05;7.80;1.00
9167;DHT22;4618;48.818;9.088;2023-12-22T03:53:30;7.70;1.00
9167;DHT22;4618;48.818;9.088;2023-12-22T03:55:56;7.50;1.00
9167;DHT22;4618;48.818;9.088;2023-12-22T03:58:21;7.10;99.90
9167;DHT22;4618;48.818;9.088;2023-12-22T04:00:47;6.80;99.90
9167;DHT22;4618;48.818;9.088;2023-12-22T04:03:13;6.60;99.90
9167;DHT22;4618;48.818;9.088;2023-12-22T04:05:38;6.60;99.90
9167;DHT22;4618;48.818;9.088;2023-12-22T04:08:05;6.60;99.90
9167;DHT22;4618;48.818;9.088;2023-12-22T04:10:31;6.60;1.00
9167;DHT22;4618;48.818;9.088;2023-12-22T04:12:56;6.50;99.90
9167;DHT22;4618;48.818;9.088;2023-12-22T04:15:22;6.40;51.60
9167;DHT22;4618;48.818;9.088;2023-12-22T04:17:47;6.40;99.90
9167;DHT22;4618;48.818;9.088;2023-12-22T04:20:13;6.40;1.00
9167;DHT22;4618;48.818;9.088;2023-12-22T04:22:39;6.30;99.90
9167;DHT22;4618;48.818;9.088;2023-12-22T04:25:04;6.30;99.90
9167;DHT22;4618;48.818;9.088;2023-12-22T04:27:31;6.40;99.90
9167;DHT22;4618;48.818;9.088;2023-12-22T04:29:57;6.60;1.00
9167;DHT22;4618;48.818;9.088;2023-12-22T04:32:22;6.70;1.00
9167;DHT22;4618;48.818;9.088;2023-12-22T04:34:48;6.80;99.90
9167;DHT22;4618;48.818;9.088;2023-12-22T04:37:14;6.90;1.00
9167;DHT22;4618;48.818;9.088;2023-12-22T04:39:40;7.00;99.90
9167;DHT22;4618;48.818;9.088;2023-12-22T04:42:05;7.00;7.60
9167;DHT22;4618;48.818;9.088;2023-12-22T04:44:31;7.00;1.00
9167;DHT22;4618;48.818;9.088;2023-12-22T04:46:57;7.10;1.00
9167;DHT22;4618;48.818;9.088;2023-12-22T04:49:22;7.20;99.90
9167;DHT22;4618;48.818;9.088;2023-12-22T04:51:48;7.20;99.90
9167;DHT22;4618;48.818;9.088;2023-12-22T04:54:13;7.10;99.90
9167;DHT22;4618;48.818;9.088;2023-12-22T04:56:39;7.10;99.90
9167;DHT22;4618;48.818;9.088;2023-12-22T04:59:04;7.20;99.90
9167;DHT22;4618;48.818;9.088;2023-12-22T05:01:30;7.20;23.40
9167;DHT22;4618;48.818;9.088;2023-12-22T05:03:56;7.30;1.00
9167;DHT22;4618;48.818;9.088;2023-12-22T05:06:21;7.30;1.00
9167;DHT22;4618;48.818;9.088;2023-12-22T05:08:47;7.30;1.00
9167;DHT22;4618;48.818;9.088;2023-12-22T05:11:12;7.30;1.00
9167;DHT22;4618;48.818;9.088;2023-12-22T05:13:38;7.30;49.60
9167;DHT22;4618;48.818;9.088;2023-12-22T05:16:04;7.30;1.00
9167;DHT22;4618;48.818;9.088;2023-12-22T05:18:32;7.30;1.00
9167;DHT22;4618;48.818;9.088;2023-12-22T05:20:58;7.30;1.00
9167;DHT22;4618;48.818;9.088;2023-12-22T05:23:23;7.30;1.00
9167;DHT22;4618;48.818;9.088;2023-12-22T05:25:49;7.40;1.00
9167;DHT22;4618;48.818;9.088;2023-12-22T05:28:14;7.40;1.00
9167;DHT22;4618;48.818;9.088;2023-12-22T05:30:40;7.40;1.00
9167;DHT22;4618;48.818;9.088;2023-12-22T05:33:06;7.30;1.00
9167;DHT22;4618;48.818;9.088;2023-12-22T05:35:31;7.10;99.90
9167;DHT22;4618;48.818;9.088;2023-12-22T05:37:57;7.00;99.90
9167;DHT22;4618;48.818;9.088;2023-12-22T05:40:22;6.80;18.60
9167;DHT22;4618;48.818;9.088;2023-12-22T05:42:48;6.80;1.00
9167;DHT22;4618;48.818;9.088;2023-12-22T05:45:14;6.90;1.00
9167;DHT22;4618;48.818;9.088;2023-12-22T05:47:40;7.10;99.90
9167;DHT22;4618;48.818;9.088;2023-12-22T05:50:06;7.20;1.00
9167;DHT22;4618;48.818;9.088;2023-12-22T05:52:32;7.30;1.00
9167;DHT22;4618;48.818;9.088;2023-12-22T05:54:58;7.50;1.00
9167;DHT22;4618;48.818;9.088;2023-12-22T05:57:27;7.50;99.90
9167;DHT22;4618;48.818;9.088;2023-12-22T05:59:52;7.60;99.90
9167;DHT22;4618;48.818;9.088;2023-12-22T06:02:18;7.70;99.90
9167;DHT22;4618;48.818;9.088;2023-12-22T06:04:43;7.70;99.90
9167;DHT22;4618;48.818;9.088;2023-12-22T06:07:10;7.70;31.20
9167;DHT22;4618;48.818;9.088;2023-12-22T06:09:36;7.80;98.80
9167;DHT22;4618;48.818;9.088;2023-12-22T06:12:01;7.80;99.90
9167;DHT22;4618;48.818;9.088;2023-12-22T06:14:27;7.70;99.90
9167;DHT22;4618;48.818;9.088;2023-12-22T06:16:53;7.70;49.30
9167;DHT22;4618;48.818;9.088;2023-12-22T06:19:19;7.80;95.50
9167;DHT22;4618;48.818;9.088;2023-12-22T06:21:44;7.80;94.00
9167;DHT22;4618;48.818;9.088;2023-12-22T06:24:10;7.70;99.90
9167;DHT22;4618;48.818;9.088;2023-12-22T06:26:36;7.80;1.00
9167;DHT22;4618;48.818;9.088;2023-12-22T06:29:01;7.80;39.80
9167;DHT22;4618;48.818;9.088;2023-12-22T06:31:29;7.80;94.20
9167;DHT22;4618;48.818;9.088;2023-12-22T06:33:54;7.70;76.80
9167;DHT22;4618;48.818;9.088;2023-12-22T06:36:24;7.70;1.00
9167;DHT22;4618;48.818;9.088;2023-12-22T06:38:51;7.80;1.00
9167;DHT22;4618;48.818;9.088;2023-12-22T06:41:29;7.80;1.00
9167;DHT22;4618;48.818;9.088;2023-12-22T06:43:58;7.80;1.00
9167;DHT22;4618;48.818;9.088;2023-12-22T06:46:28;7.80;1.00
9167;DHT22;4618;48.818;9.088;2023-12-22T06:48:57;7.90;1.00
9167;DHT22;4618;48.818;9.088;2023-12-22T06:51:27;7.90;1.00
9167;DHT22;4618;48.818;9.088;2023-12-22T06:53:54;7.90;1.00
9167;DHT22;4618;48.818;9.088;2023-12-22T06:58:50;7.90;1.00
9167;DHT22;4618;48.818;9.088;2023-12-22T07:01:35;7.90;1.00
9167;DHT22;4618;48.818;9.088;2023-12-22T07:04:02;7.90;1.00
9167;DHT22;4618;48.818;9.088;2023-12-22T07:06:30;7.80;27.20
9167;DHT22;4618;48.818;9.088;2023-12-22T07:08:57;7.70;77.90
9167;DHT22;4618;48.818;9.088;2023-12-22T07:11:22;7.70;99.90
9167;DHT22;4618;48.818;9.088;2023-12-22T07:13:48;7.70;99.90
9167;DHT22;4618;48.818;9.088;2023-12-22T07:16:15;7.70;99.90
9167;DHT22;4618;48.818;9.088;2023-12-22T07:18:40;7.70;99.90
9167;DHT22;4618;48.818;9.088;2023-12-22T07:21:06;7.60;99.90
9167;DHT22;4618;48.818;9.088;2023-12-22T07:23:32;7.50;1.00
9167;DHT22;4618;48.818;9.088;2023-12-22T07:25:58;7.50;1.00
9167;DHT22;4618;48.818;9.088;2023-12-22T07:28:24;7.50;1.00
9167;DHT22;4618;48.818;9.088;2023-12-22T07:30:49;7.60;1.00
9167;DHT22;4618;48.818;9.088;2023-12-22T07:33:15;7.70;99.90
9167;DHT22;4618;48.818;9.088;2023-12-22T07:35:40;7.70;99.90
9167;DHT22;4618;48.818;9.088;2023-12-22T07:38:06;7.70;99.90
9167;DHT22;4618;48.818;9.088;2023-12-22T07:40:31;7.70;99.90
9167;DHT22;4618;48.818;9.088;2023-12-22T07:42:58;7.70;99.90
9167;DHT22;4618;48.818;9.088;2023-12-22T07:45:23;7.70;99.90
9167;DHT22;4618;48.818;9.088;2023-12-22T07:47:49;7.70;99.90
9167;DHT22;4618;48.818;9.088;2023-12-22T07:50:15;7.70;99.90
9167;DHT22;4618;48.818;9.088;2023-12-22T07:52:40;7.70;99.90
9167;DHT22;4618;48.818;9.088;2023-12-22T07:55:07;7.70;1.00
9167;DHT22;4618;48.818;9.088;2023-12-22T07:57:34;7.60;1.00
9167;DHT22;4618;48.818;9.088;2023-12-22T08:00:00;7.50;99.90
9167;DHT22;4618;48.818;9.088;2023-12-22T08:02:26;7.30;1.00
9167;DHT22;4618;48.818;9.088;2023-12-22T08:04:51;7.20;99.90
9167;DHT22;4618;48.818;9.088;2023-12-22T08:07:17;7.10;1.00
9167;DHT22;4618;48.818;9.088;2023-12-22T08:09:43;6.90;1.00
9167;DHT22;4618;48.818;9.088;2023-12-22T08:12:08;6.80;12.80
9167;DHT22;4618;48.818;9.088;2023-12-22T08:14:34;6.80;99.90
9167;DHT22;4618;48.818;9.088;2023-12-22T08:16:59;6.70;1.00
9167;DHT22;4618;48.818;9.088;2023-12-22T08:19:25;6.70;88.30
9167;DHT22;4618;48.818;9.088;2023-12-22T08:21:52;6.60;99.90
9167;DHT22;4618;48.818;9.088;2023-12-22T08:24:19;6.60;1.00
9167;DHT22;4618;48.818;9.088;2023-12-22T08:26:44;6.60;1.00
9167;DHT22;4618;48.818;9.088;2023-12-22T08:29:10;6.60;1.00
9167;DHT22;4618;48.818;9.088;2023-12-22T08:31:35;6.70;1.00
9167;DHT22;4618;48.818;9.088;2023-12-22T08:34:01;6.70;99.90
9167;DHT22;4618;48.818;9.088;2023-12-22T08:36:27;6.90;1.00
9167;DHT22;4618;48.818;9.088;2023-12-22T08:38:52;6.90;1.00
9167;DHT22;4618;48.818;9.088;2023-12-22T08:41:18;7.00;99.90
9167;DHT22;4618;48.818;9.088;2023-12-22T08:43:43;7.10;1.00
9167;DHT22;4618;48.818;9.088;2023-12-22T08:46:09;7.10;1.00
9167;DHT22;4618;48.818;9.088;2023-12-22T08:48:38;7.20;1.00
9167;DHT22;4618;48.818;9.088;2023-12-22T08:51:04;7.10;1.00
9167;DHT22;4618;48.818;9.088;2023-12-22T08:53:29;7.20;99.90
9167;DHT22;4618;48.818;9.088;2023-12-22T08:55:59;7.30;1.00
9167;DHT22;4618;48.818;9.088;2023-12-22T08:58:25;7.50;99.90
9167;DHT22;4618;48.818;9.088;2023-12-22T09:00:51;7.60;99.90
9167;DHT22;4618;48.818;9.088;2023-12-22T09:03:16;7.60;99.90
9167;DHT22;4618;48.818;9.088;2023-12-22T09:05:42;7.60;99.90
9167;DHT22;4618;48.818;9.088;2023-12-22T09:08:08;7.60;1.00
9167;DHT22;4618;48.818;9.088;2023-12-22T09:10:33;7.80;99.90
9167;DHT22;4618;48.818;9.088;2023-12-22T09:12:59;7.90;56.10
9167;DHT22;4618;48.818;9.088;2023-12-22T09:15:25;7.90;1.00
9167;DHT22;4618;48.818;9.088;2023-12-22T09:17:52;7.90;1.00
9167;DHT22;4618;48.818;9.088;2023-12-22T09:20:18;8.00;1.00
9167;DHT22;4618;48.818;9.088;2023-12-22T09:22:44;8.00;1.00
9167;DHT22;4618;48.818;9.088;2023-12-22T09:25:10;8.00;99.90
9167;DHT22;4618;48.818;9.088;2023-12-22T09:27:35;8.10;99.90
9167;DHT22;4618;48.818;9.088;2023-12-22T09:30:01;8.00;99.90
9167;DHT22;4618;48.818;9.088;2023-12-22T09:32:26;8.20;99.90
9167;DHT22;4618;48.818;9.088;2023-12-22T09:34:52;8.20;99.90
9167;DHT22;4618;48.818;9.088;2023-12-22T09:37:20;8.20;99.90
9167;DHT22;4618;48.818;9.088;2023-12-22T09:39:45;8.20;99.90
9167;DHT22;4618;48.818;9.088;2023-12-22T09:42:11;8.20;44.10
9167;DHT22;4618;48.818;9.088;2023-12-22T09:44:39;8.30;99.90
9167;DHT22;4618;48.818;9.088;2023-12-22T09:47:06;8.20;99.30
9167;DHT22;4618;48.818;9.088;2023-12-22T09:49:35;8.30;99.90
9167;DHT22;4618;48.818;9.088;2023-12-22T09:52:02;8.30;99.90
9167;DHT22;4618;48.818;9.088;2023-12-22T09:54:32;8.30;3.10
9167;DHT22;4618;48.818;9.088;2023-12-22T09:56:59;8.30;31.10
9167;DHT22;4618;48.818;9.088;2023-12-22T09:59:27;8.30;1.00
9167;DHT22;4618;48.818;9.088;2023-12-22T10:01:55;8.30;3.40
9167;DHT22;4618;48.818;9.088;2023-12-22T10:04:21;8.30;22.60
9167;DHT22;4618;48.818;9.088;2023-12-22T10:06:48;8.30;2.40
9167;DHT22;4618;48.818;9.088;2023-12-22T10:09:15;8.30;1.00
9167;DHT22;4618;48.818;9.088;2023-12-22T10:11:43;8.30;4.20
9167;DHT22;4618;48.818;9.088;2023-12-22T10:14:10;8.30;1.00
9167;DHT22;4618;48.818;9.088;2023-12-22T10:16:38;8.40;1.00
9167;DHT22;4618;48.818;9.088;2023-12-22T10:19:05;8.40;1.00
9167;DHT22;4618;48.818;9.088;2023-12-22T10:21:32;8.40;1.00
9167;DHT22;4618;48.818;9.088;2023-12-22T10:23:57;8.40;1.00
9167;DHT22;4618;48.818;9.088;2023-12-22T10:26:23;8.40;1.00
9167;DHT22;4618;48.818;9.088;2023-12-22T10:28:48;8.50;1.00
9167;DHT22;4618;48.818;9.088;2023-12-22T10:31:14;8.50;1.00
9167;DHT22;4618;48.818;9.088;2023-12-22T10:33:40;8.50;1.00
9167;DHT22;4618;48.818;9.088;2023-12-22T10:36:07;8.50;3.20
9167;DHT22;4618;48.818;9.088;2023-12-22T10:38:33;8.40;96.20
9167;DHT22;4618;48.818;9.088;2023-12-22T10:41:06;8.30;99.90
9167;DHT22;4618;48.818;9.088;2023-12-22T10:43:39;8.30;99.90
9167;DHT22;4618;48.818;9.088;2023-12-22T10:46:06;8.20;99.90
9167;DHT22;4618;48.818;9.088;2023-12-22T10:48:33;8.30;99.90
9167;DHT22;4618;48.818;9.088;2023-12-22T10:50:59;8.20;99.90
9167;DHT22;4618;48.818;9.088;2023-12-22T10:53:25;8.10;1.00
9167;DHT22;4618;48.818;9.088;2023-12-22T10:55:51;8.10;1.00
9167;DHT22;4618;48.818;9.088;2023-12-22T10:58:17;8.10;1.00
9167;DHT22;4618;48.818;9.088;2023-12-22T11:00:45;8.00;1.00
9167;DHT22;4618;48.818;9.088;2023-12-22T11:03:16;8.10;1.00
9167;DHT22;4618;48.818;9.088;2023-12-22T11:05:45;8.00;99.90
9167;DHT22;4618;48.818;9.088;2023-12-22T11:08:12;8.00;99.90
9167;DHT22;4618;48.818;9.088;2023-12-22T11:10:41;7.80;1.00
9167;DHT22;4618;48.818;9.088;2023-12-22T11:13:08;7.70;99.90
9167;DHT22;4618;48.818;9.088;2023-12-22T11:15:34;7.70;1.00
9167;DHT22;4618;48.818;9.088;2023-12-22T11:18:01;7.70;1.00
9167;DHT22;4618;48.818;9.088;2023-12-22T11:20:27;7.70;71.10
9167;DHT22;4618;48.818;9.088;2023-12-22T11:22:59;7.60;99.90
9167;DHT22;4618;48.818;9.088;2023-12-22T11:25:25;7.60;1.00
9167;DHT22;4618;48.818;9.088;2023-12-22T11:27:52;7.50;88.50
9167;DHT22;4618;48.818;9.088;2023-12-22T11:30:20;7.50;99.90
9167;DHT22;4618;48.818;9.088;2023-12-22T11:32:45;7.50;99.90
9167;DHT22;4618;48.818;9.088;2023-12-22T11:35:12;7.50;99.90
9167;DHT22;4618;48.818;9.088;2023-12-22T11:37:39;7.40;1.00
9167;DHT22;4618;48.818;9.088;2023-12-22T11:40:06;7.40;99.90
9167;DHT22;4618;48.818;9.088;2023-12-22T11:42:35;7.40;1.00
9167;DHT22;4618;48.818;9.088;2023-12-22T11:45:04;7.30;1.00
9167;DHT22;4618;48.818;9.088;2023-12-22T11:47:30;7.30;1.00
9167;DHT22;4618;48.818;9.088;2023-12-22T11:49:56;7.30;1.00
9167;DHT22;4618;48.818;9.088;2023-12-22T11:52:26;7.20;99.90
9167;DHT22;4618;48.818;9.088;2023-12-22T11:54:54;7.20;99.90
9167;DHT22;4618;48.818;9.088;2023-12-22T11:57:40;7.20;99.90
9167;DHT22;4618;48.818;9.088;2023-12-22T12:00:37;7.20;99.90
9167;DHT22;4618;48.818;9.088;2023-12-22T12:03:06;7.10;99.90
9167;DHT22;4618;48.818;9.088;2023-12-22T12:05:32;7.10;1.00
9167;DHT22;4618;48.818;9.088;2023-12-22T12:08:06;7.10;1.00
9167;DHT22;4618;48.818;9.088;2023-12-22T12:13:08;7.10;1.00
9167;DHT22;4618;48.818;9.088;2023-12-22T12:15:34;7.20;99.90
9167;DHT22;4618;48.818;9.088;2023-12-22T12:18:04;7.20;99.90
9167;DHT22;4618;48.818;9.088;2023-12-22T12:20:32;7.20;99.90
9167;DHT22;4618;48.818;9.088;2023-12-22T12:22:58;7.30;99.90
9167;DHT22;4618;48.818;9.088;2023-12-22T12:25:29;7.30;94.30
9167;DHT22;4618;48.818;9.088;2023-12-22T12:28:03;7.20;25.70
9167;DHT22;4618;48.818;9.088;2023-12-22T12:30:29;7.30;1.00
9167;DHT22;4618;48.818;9.088;2023-12-22T12:33:08;7.40;1.00
9167;DHT22;4618;48.818;9.088;2023-12-22T12:35:34;7.40;1.00
9167;DHT22;4618;48.818;9.088;2023-12-22T12:38:00;7.40;1.00
9167;DHT22;4618;48.818;9.088;2023-12-22T12:40:27;7.40;1.00
9167;DHT22;4618;48.818;9.088;2023-12-22T12:42:55;7.50;1.00
9167;DHT22;4618;48.818;9.088;2023-12-22T12:45:24;7.60;1.00
9167;DHT22;4618;48.818;9.088;2023-12-22T12:48:00;7.60;1.00
9167;DHT22;4618;48.818;9.088;2023-12-22T12:50:26;7.70;1.00
9167;DHT22;4618;48.818;9.088;2023-12-22T12:52:53;7.70;1.00
9167;DHT22;4618;48.818;9.088;2023-12-22T12:55:23;7.70;1.00
9167;DHT22;4618;48.818;9.088;2023-12-22T12:57:50;7.80;1.00
9167;DHT22;4618;48.818;9.088;2023-12-22T13:00:34;7.90;1.00
9167;DHT22;4618;48.818;9.088;2023-12-22T13:03:05;8.00;1.00
9167;DHT22;4618;48.818;9.088;2023-12-22T13:05:34;8.10;1.00
9167;DHT22;4618;48.818;9.088;2023-12-22T13:08:10;8.20;1.00
9167;DHT22;4618;48.818;9.088;2023-12-22T13:10:36;8.40;99.90
9167;DHT22;4618;48.818;9.088;2023-12-22T13:13:02;8.50;99.90
9167;DHT22;4618;48.818;9.088;2023-12-22T13:15:28;8.70;1.00
9167;DHT22;4618;48.818;9.088;2023-12-22T13:17:54;8.80;1.00
9167;DHT22;4618;48.818;9.088;2023-12-22T13:20:20;8.90;1.00
9167;DHT22;4618;48.818;9.088;2023-12-22T13:22:46;8.90;1.00
9167;DHT22;4618;48.818;9.088;2023-12-22T13:25:11;8.90;1.00
9167;DHT22;4618;48.818;9.088;2023-12-22T13:27:51;9.10;99.90
9167;DHT22;4618;48.818;9.088;2023-12-22T13:30:49;9.20;1.00
9167;DHT22;4618;48.818;9.088;2023-12-22T13:33:15;9.20;1.00
9167;DHT22;4618;48.818;9.088;2023-12-22T13:35:41;9.20;1.00
9167;DHT22;4618;48.818;9.088;2023-12-22T13:38:07;9.30;1.00
9167;DHT22;4618;48.818;9.088;2023-12-22T13:40:33;9.20;1.00
9167;DHT22;4618;48.818;9.088;2023-12-22T13:42:59;9.30;1.00
9167;DHT22;4618;48.818;9.088;2023-12-22T13:45:27;9.30;1.00
9167;DHT22;4618;48.818;9.088;2023-12-22T13:47:53;9.40;99.90
9167;DHT22;4618;48.818;9.088;2023-12-22T13:50:19;9.40;99.90
9167;DHT22;4618;48.818;9.088;2023-12-22T13:52:48;9.40;99.90
9167;DHT22;4618;48.818;9.088;2023-12-22T13:55:16;9.50;99.90
9167;DHT22;4618;48.818;9.088;2023-12-22T13:57:43;9.50;99.90
9167;DHT22;4618;48.818;9.088;2023-12-22T14:02:47;9.50;99.90
9167;DHT22;4618;48.818;9.088;2023-12-22T14:05:16;9.50;99.90
9167;DHT22;4618;48.818;9.088;2023-12-22T14:07:43;9.50;99.90
9167;DHT22;4618;48.818;9.088;2023-12-22T14:10:10;9.50;19.60
9167;DHT22;4618;48.818;9.088;2023-12-22T14:12:36;9.50;26.90
9167;DHT22;4618;48.818;9.088;2023-12-22T14:15:11;9.50;1.00
9167;DHT22;4618;48.818;9.088;2023-12-22T14:17:37;9.50;1.00
9167;DHT22;4618;48.818;9.088;2023-12-22T14:20:03;9.50;1.00
9167;DHT22;4618;48.818;9.088;2023-12-22T14:22:38;9.60;1.00
9167;DHT22;4618;48.818;9.088;2023-12-22T14:25:04;9.60;1.00
9167;DHT22;4618;48.818;9.088;2023-12-22T14:27:30;9.60;1.00
9167;DHT22;4618;48.818;9.088;2023-12-22T14:29:55;9.60;1.00
9167;DHT22;4618;48.818;9.088;2023-12-22T14:32:21;9.60;1.00
9167;DHT22;4618;48.818;9.088;2023-12-22T14:34:49;9.60;1.00
9167;DHT22;4618;48.818;9.088;2023-12-22T14:37:14;9.60;1.00
9167;DHT22;4618;48.818;9.088;2023-12-22T14:39:43;9.70;1.00
9167;DHT22;4618;48.818;9.088;2023-12-22T14:42:11;9.70;1.00
9167;DHT22;4618;48.818;9.088;2023-12-22T14:44:36;9.70;1.00
9167;DHT22;4618;48.818;9.088;2023-12-22T14:47:04;9.70;1.00
9167;DHT22;4618;48.818;9.088;2023-12-22T14:49:30;9.70;1.00
9167;DHT22;4618;48.818;9.088;2023-12-22T14:51:56;9.70;1.00
9167;DHT22;4618;48.818;9.088;2023-12-22T14:54:24;9.60;1.00
9167;DHT22;4618;48.818;9.088;2023-12-22T14:56:50;9.60;1.00
9167;DHT22;4618;48.818;9.088;2023-12-22T14:59:16;9.60;99.90
9167;DHT22;4618;48.818;9.088;2023-12-22T15:01:43;9.60;99.90
9167;DHT22;4618;48.818;9.088;2023-12-22T15:04:08;9.60;1.00
9167;DHT22;4618;48.818;9.088;2023-12-22T15:06:38;9.60;1.00
9167;DHT22;4618;48.818;9.088;2023-12-22T15:09:04;9.50;1.00
9167;DHT22;4618;48.818;9.088;2023-12-22T15:11:30;9.50;1.00
9167;DHT22;4618;48.818;9.088;2023-12-22T15:13:56;9.40;1.00
9167;DHT22;4618;48.818;9.088;2023-12-22T15:16:21;9.40;1.00
9167;DHT22;4618;48.818;9.088;2023-12-22T15:18:47;9.40;1.00
9167;DHT22;4618;48.818;9.088;2023-12-22T15:21:20;9.40;1.00
9167;DHT22;4618;48.818;9.088;2023-12-22T15:23:46;9.50;1.00
9167;DHT22;4618;48.818;9.088;2023-12-22T15:26:22;9.40;49.10
9167;DHT22;4618;48.818;9.088;2023-12-22T15:28:47;9.50;1.00
9167;DHT22;4618;48.818;9.088;2023-12-22T15:31:13;9.50;1.00
9167;DHT22;4618;48.818;9.088;2023-12-22T15:33:39;9.50;1.00
9167;DHT22;4618;48.818;9.088;2023-12-22T15:36:04;9.50;1.00
9167;DHT22;4618;48.818;9.088;2023-12-22T15:38:30;9.50;1.00
9167;DHT22;4618;48.818;9.088;2023-12-22T15:40:59;9.50;1.00
9167;DHT22;4618;48.818;9.088;2023-12-22T15:43:26;9.60;99.90
9167;DHT22;4618;48.818;9.088;2023-12-22T15:45:52;9.60;99.90
9167;DHT22;4618;48.818;9.088;2023-12-22T15:48:17;9.70;99.90
9167;DHT22;4618;48.818;9.088;2023-12-22T15:50:43;9.70;99.90
9167;DHT22;4618;48.818;9.088;2023-12-22T15:53:10;9.70;15.80
9167;DHT22;4618;48.818;9.088;2023-12-22T15:55:36;9.80;1.00
9167;DHT22;4618;48.818;9.088;2023-12-22T15:58:01;9.80;1.00
9167;DHT22;4618;48.818;9.088;2023-12-22T16:00:27;9.80;1.00
9167;DHT22;4618;48.818;9.088;2023-12-22T16:02:53;9.80;1.00
9167;DHT22;4618;48.818;9.088;2023-12-22T16:05:19;9.80;1.00
9167;DHT22;4618;48.818;9.088;2023-12-22T16:07:45;9.80;1.00
9167;DHT22;4618;48.818;9.088;2023-12-22T16:10:10;9.80;1.00
9167;DHT22;4618;48.818;9.088;2023-12-22T16:12:39;9.80;1.00
9167;DHT22;4618;48.818;9.088;2023-12-22T16:15:08;9.80;1.00
9167;DHT22;4618;48.818;9.088;2023-12-22T16:17:34;9.80;1.00
9167;DHT22;4618;48.818;9.088;2023-12-22T16:19:59;9.80;1.00
9167;DHT22;4618;48.818;9.088;2023-12-22T16:22:25;9.70;1.00
9167;DHT22;4618;48.818;9.088;2023-12-22T16:24:50;9.70;1.00
9167;DHT22;4618;48.818;9.088;2023-12-22T16:27:16;9.70;1.00
9167;DHT22;4618;48.818;9.088;2023-12-22T16:29:42;9.70;28.90
9167;DHT22;4618;48.818;9.088;2023-12-22T16:32:08;9.70;99.90